sensor_id;sensor_type;location;lat;lon;timestamp;pressure;altitude;pressure_sealevel;temperature;humidity
23303;BME280;11820;48.738;9.092;2022-07-29T00:00:52;96131.56;;;22.80;nan
23303;BME280;11820;48.738;9.092;2022-07-29T00:03:18;96133.59;;;22.45;nan
23303;BME280;11820;48.738;9.092;2022-07-29T00:05:43;96119.25;;;22.66;nan
23303;BME280;11820;48.738;9.092;2022-07-29T00:08:09;96112.84;;;22.77;nan
23303;BME280;11820;48.738;9.092;2022-07-29T00:10:34;96114.53;;;22.58;nan
23303;BME280;11820;48.738;9.092;2022-07-29T00:13:00;96118.31;;;22.37;nan
23303;BME280;11820;48.738;9.092;2022-07-29T00:15:25;96112.31;;;22.21;nan
23303;BME280;11820;48.738;9.092;2022-07-29T00:17:51;96108.81;;;22.46;nan
23303;BME280;11820;48.738;9.092;2022-07-29T00:20:16;96101.97;;;22.30;nan
23303;BME280;11820;48.738;9.092;2022-07-29T00:22:42;96112.81;;;22.28;nan
23303;BME280;11820;48.738;9.092;2022-07-29T00:25:07;96111.75;;;22.29;nan
23303;BME280;11820;48.738;9.092;2022-07-29T00:27:34;96111.72;;;22.34;nan
23303;BME280;11820;48.738;9.092;2022-07-29T00:29:59;96110.91;;;22.44;nan
23303;BME280;11820;48.738;9.092;2022-07-29T00:32:24;96114.66;;;22.38;nan
23303;BME280;11820;48.738;9.092;2022-07-29T00:34:50;96107.56;;;22.18;nan
23303;BME280;11820;48.738;9.092;2022-07-29T00:37:34;96106.72;;;22.43;nan
23303;BME280;11820;48.738;9.092;2022-07-29T00:39:59;96110.13;;;22.43;nan
23303;BME280;11820;48.738;9.092;2022-07-29T00:42:24;96102.03;;;22.20;nan
23303;BME280;11820;48.738;9.092;2022-07-29T00:44:50;96099.41;;;22.20;nan
23303;BME280;11820;48.738;9.092;2022-07-29T00:47:15;96098.56;;;22.29;nan
23303;BME280;11820;48.738;9.092;2022-07-29T00:49:41;96097.53;;;22.25;nan
23303;BME280;11820;48.738;9.092;2022-07-29T00:52:08;96091.22;;;22.21;nan
23303;BME280;11820;48.738;9.092;2022-07-29T00:54:35;96094.41;;;22.13;nan
23303;BME280;11820;48.738;9.092;2022-07-29T00:57:01;96080.50;;;21.98;nan
23303;BME280;11820;48.738;9.092;2022-07-29T00:59:27;96087.34;;;22.09;nan
23303;BME280;11820;48.738;9.092;2022-07-29T01:01:53;96081.31;;;21.98;nan
23303;BME280;11820;48.738;9.092;2022-07-29T01:04:19;96084.94;;;22.07;nan
23303;BME280;11820;48.738;9.092;2022-07-29T01:06:46;96084.94;;;22.07;nan
23303;BME280;11820;48.738;9.092;2022-07-29T01:09:12;96069.44;;;21.96;nan
23303;BME280;11820;48.738;9.092;2022-07-29T01:11:38;96071.06;;;21.92;nan
23303;BME280;11820;48.738;9.092;2022-07-29T01:14:06;96073.72;;;21.87;nan
23303;BME280;11820;48.738;9.092;2022-07-29T01:16:35;96072.09;;;21.91;nan
23303;BME280;11820;48.738;9.092;2022-07-29T01:19:55;96068.44;;;21.87;nan
23303;BME280;11820;48.738;9.092;2022-07-29T01:22:07;96070.78;;;21.88;nan
23303;BME280;11820;48.738;9.092;2022-07-29T01:30:09;96073.19;;;21.75;nan
23303;BME280;11820;48.738;9.092;2022-07-29T01:32:37;96072.03;;;22.06;nan
23303;BME280;11820;48.738;9.092;2022-07-29T01:35:12;96075.25;;;21.98;nan
23303;BME280;11820;48.738;9.092;2022-07-29T01:37:50;96073.41;;;21.93;nan
23303;BME280;11820;48.738;9.092;2022-07-29T01:40:44;96073.44;;;21.83;nan
23303;BME280;11820;48.738;9.092;2022-07-29T01:43:14;96075.28;;;21.78;nan
23303;BME280;11820;48.738;9.092;2022-07-29T01:45:57;96075.88;;;21.65;nan
23303;BME280;11820;48.738;9.092;2022-07-29T01:48:34;96069.00;;;21.54;nan
23303;BME280;11820;48.738;9.092;2022-07-29T01:51:05;96071.91;;;21.62;nan
23303;BME280;11820;48.738;9.092;2022-07-29T01:53:38;96062.69;;;21.65;nan
23303;BME280;11820;48.738;9.092;2022-07-29T01:56:08;96069.00;;;21.69;nan
23303;BME280;11820;48.738;9.092;2022-07-29T01:58:36;96075.34;;;21.63;nan
23303;BME280;11820;48.738;9.092;2022-07-29T02:01:04;96071.38;;;21.75;nan
23303;BME280;11820;48.738;9.092;2022-07-29T02:03:31;96067.13;;;21.84;nan
23303;BME280;11820;48.738;9.092;2022-07-29T02:05:59;96066.03;;;21.90;nan
23303;BME280;11820;48.738;9.092;2022-07-29T02:08:27;96065.78;;;21.92;nan
23303;BME280;11820;48.738;9.092;2022-07-29T02:10:54;96060.50;;;21.92;nan
23303;BME280;11820;48.738;9.092;2022-07-29T02:13:21;96055.19;;;22.02;nan
23303;BME280;11820;48.738;9.092;2022-07-29T02:15:49;96059.72;;;21.96;nan
23303;BME280;11820;48.738;9.092;2022-07-29T02:18:17;96053.09;;;21.99;nan
23303;BME280;11820;48.738;9.092;2022-07-29T02:20:47;96060.53;;;21.82;nan
23303;BME280;11820;48.738;9.092;2022-07-29T02:23:15;96049.72;;;21.88;nan
23303;BME280;11820;48.738;9.092;2022-07-29T02:25:42;96045.00;;;21.85;nan
23303;BME280;11820;48.738;9.092;2022-07-29T02:28:08;96048.94;;;21.88;nan
23303;BME280;11820;48.738;9.092;2022-07-29T02:30:36;96048.13;;;21.92;nan
23303;BME280;11820;48.738;9.092;2022-07-29T02:33:04;96046.63;;;21.76;nan
23303;BME280;11820;48.738;9.092;2022-07-29T02:35:31;96045.56;;;21.77;nan
23303;BME280;11820;48.738;9.092;2022-07-29T02:37:57;96049.50;;;21.75;nan
23303;BME280;11820;48.738;9.092;2022-07-29T02:40:50;96047.38;;;21.77;nan
23303;BME280;11820;48.738;9.092;2022-07-29T02:43:19;96046.63;;;21.56;nan
23303;BME280;11820;48.738;9.092;2022-07-29T02:45:47;96041.09;;;21.73;nan
23303;BME280;11820;48.738;9.092;2022-07-29T02:48:16;96048.19;;;21.67;nan
23303;BME280;11820;48.738;9.092;2022-07-29T02:50:50;96050.81;;;21.67;nan
23303;BME280;11820;48.738;9.092;2022-07-29T02:53:22;96046.91;;;21.60;nan
23303;BME280;11820;48.738;9.092;2022-07-29T02:56:01;96042.97;;;21.47;nan
23303;BME280;11820;48.738;9.092;2022-07-29T02:58:34;96056.38;;;21.46;nan
23303;BME280;11820;48.738;9.092;2022-07-29T03:01:07;96054.59;;;21.22;nan
23303;BME280;11820;48.738;9.092;2022-07-29T03:03:36;96049.03;;;21.28;nan
23303;BME280;11820;48.738;9.092;2022-07-29T03:06:03;96047.69;;;21.40;nan
23303;BME280;11820;48.738;9.092;2022-07-29T03:08:29;96048.47;;;21.56;nan
23303;BME280;11820;48.738;9.092;2022-07-29T03:10:56;96050.06;;;21.47;nan
23303;BME280;11820;48.738;9.092;2022-07-29T03:13:21;96050.06;;;21.57;nan
23303;BME280;11820;48.738;9.092;2022-07-29T03:15:48;96042.69;;;21.64;nan
23303;BME280;11820;48.738;9.092;2022-07-29T03:18:14;96047.69;;;21.70;nan
23303;BME280;11820;48.738;9.092;2022-07-29T03:20:40;96044.50;;;21.58;nan
23303;BME280;11820;48.738;9.092;2022-07-29T03:23:06;96043.22;;;21.61;nan
23303;BME280;11820;48.738;9.092;2022-07-29T03:25:32;96050.06;;;21.52;nan
23303;BME280;11820;48.738;9.092;2022-07-29T03:27:58;96058.72;;;21.67;nan
23303;BME280;11820;48.738;9.092;2022-07-29T03:30:24;96057.13;;;21.81;nan
23303;BME280;11820;48.738;9.092;2022-07-29T03:32:50;96053.47;;;21.72;nan
23303;BME280;11820;48.738;9.092;2022-07-29T03:35:16;96060.59;;;21.62;nan
23303;BME280;11820;48.738;9.092;2022-07-29T03:37:42;96061.88;;;21.59;nan
23303;BME280;11820;48.738;9.092;2022-07-29T03:40:09;96058.25;;;21.36;nan
23303;BME280;11820;48.738;9.092;2022-07-29T03:42:38;96061.13;;;21.59;nan
23303;BME280;11820;48.738;9.092;2022-07-29T03:45:10;96066.38;;;21.59;nan
23303;BME280;11820;48.738;9.092;2022-07-29T03:47:40;96069.53;;;21.61;nan
23303;BME280;11820;48.738;9.092;2022-07-29T03:50:08;96065.88;;;21.62;nan
23303;BME280;11820;48.738;9.092;2022-07-29T03:52:36;96066.13;;;21.50;nan
23303;BME280;11820;48.738;9.092;2022-07-29T03:55:03;96065.06;;;21.51;nan
23303;BME280;11820;48.738;9.092;2022-07-29T03:57:30;96069.00;;;21.49;nan
23303;BME280;11820;48.738;9.092;2022-07-29T03:59:56;96069.56;;;21.41;nan
23303;BME280;11820;48.738;9.092;2022-07-29T04:02:23;96059.03;;;21.36;nan
23303;BME280;11820;48.738;9.092;2022-07-29T04:04:50;96071.16;;;21.12;nan
23303;BME280;11820;48.738;9.092;2022-07-29T04:07:16;96066.94;;;21.26;nan
23303;BME280;11820;48.738;9.092;2022-07-29T04:09:41;96072.75;;;21.13;nan
23303;BME280;11820;48.738;9.092;2022-07-29T04:12:07;96075.91;;;21.15;nan
23303;BME280;11820;48.738;9.092;2022-07-29T04:14:33;96066.41;;;21.29;nan
23303;BME280;11820;48.738;9.092;2022-07-29T04:17:00;96073.78;;;21.27;nan
23303;BME280;11820;48.738;9.092;2022-07-29T04:19:26;96079.56;;;21.19;nan
23303;BME280;11820;48.738;9.092;2022-07-29T04:21:51;96076.16;;;21.19;nan
23303;BME280;11820;48.738;9.092;2022-07-29T04:24:17;96074.56;;;21.33;nan
23303;BME280;11820;48.738;9.092;2022-07-29T04:26:42;96072.19;;;21.31;nan
23303;BME280;11820;48.738;9.092;2022-07-29T04:29:08;96073.53;;;21.24;nan
23303;BME280;11820;48.738;9.092;2022-07-29T04:31:33;96073.25;;;21.20;nan
23303;BME280;11820;48.738;9.092;2022-07-29T04:33:59;96075.88;;;21.30;nan
23303;BME280;11820;48.738;9.092;2022-07-29T04:36:24;96077.47;;;21.36;nan
23303;BME280;11820;48.738;9.092;2022-07-29T04:38:49;96080.06;;;21.51;nan
23303;BME280;11820;48.738;9.092;2022-07-29T04:41:15;96085.88;;;21.33;nan
23303;BME280;11820;48.738;9.092;2022-07-29T04:43:40;96079.03;;;21.37;nan
23303;BME280;11820;48.738;9.092;2022-07-29T04:46:06;96079.56;;;21.34;nan
23303;BME280;11820;48.738;9.092;2022-07-29T04:48:31;96080.59;;;21.48;nan
23303;BME280;11820;48.738;9.092;2022-07-29T04:50:57;96075.31;;;21.53;nan
23303;BME280;11820;48.738;9.092;2022-07-29T04:53:22;96076.41;;;21.42;nan
23303;BME280;11820;48.738;9.092;2022-07-29T04:55:48;96071.63;;;21.49;nan
23303;BME280;11820;48.738;9.092;2022-07-29T04:58:13;96070.56;;;21.55;nan
23303;BME280;11820;48.738;9.092;2022-07-29T05:00:39;96073.75;;;21.57;nan
23303;BME280;11820;48.738;9.092;2022-07-29T05:03:05;96073.50;;;21.63;nan
23303;BME280;11820;48.738;9.092;2022-07-29T05:05:30;96074.81;;;21.41;nan
23303;BME280;11820;48.738;9.092;2022-07-29T05:07:55;96075.84;;;21.50;nan
23303;BME280;11820;48.738;9.092;2022-07-29T05:10:21;96070.34;;;21.61;nan
23303;BME280;11820;48.738;9.092;2022-07-29T05:12:47;96069.56;;;21.41;nan
23303;BME280;11820;48.738;9.092;2022-07-29T05:15:12;96083.78;;;21.40;nan
23303;BME280;11820;48.738;9.092;2022-07-29T05:17:38;96080.34;;;21.44;nan
23303;BME280;11820;48.738;9.092;2022-07-29T05:20:04;96077.97;;;21.58;nan
23303;BME280;11820;48.738;9.092;2022-07-29T05:22:30;96077.41;;;21.56;nan
23303;BME280;11820;48.738;9.092;2022-07-29T05:24:55;96073.19;;;21.55;nan
23303;BME280;11820;48.738;9.092;2022-07-29T05:27:20;96079.56;;;21.44;nan
23303;BME280;11820;48.738;9.092;2022-07-29T05:29:46;96078.47;;;21.70;nan
23303;BME280;11820;48.738;9.092;2022-07-29T05:32:12;96085.59;;;21.64;nan
23303;BME280;11820;48.738;9.092;2022-07-29T05:34:37;96079.78;;;21.57;nan
23303;BME280;11820;48.738;9.092;2022-07-29T05:37:03;96083.22;;;21.53;nan
23303;BME280;11820;48.738;9.092;2022-07-29T05:39:28;96083.25;;;21.38;nan
23303;BME280;11820;48.738;9.092;2022-07-29T05:41:53;96086.41;;;21.35;nan
23303;BME280;11820;48.738;9.092;2022-07-29T05:44:19;96089.56;;;21.37;nan
23303;BME280;11820;48.738;9.092;2022-07-29T05:46:44;96092.44;;;21.55;nan
23303;BME280;11820;48.738;9.092;2022-07-29T05:49:09;96093.75;;;21.58;nan
23303;BME280;11820;48.738;9.092;2022-07-29T05:51:35;96084.28;;;21.57;nan
23303;BME280;11820;48.738;9.092;2022-07-29T05:54:01;96095.06;;;21.55;nan
23303;BME280;11820;48.738;9.092;2022-07-29T05:56:27;96089.03;;;21.45;nan
23303;BME280;11820;48.738;9.092;2022-07-29T05:58:52;96090.34;;;21.62;nan
23303;BME280;11820;48.738;9.092;2022-07-29T06:01:18;96090.84;;;21.79;nan
23303;BME280;11820;48.738;9.092;2022-07-29T06:03:43;96099.00;;;21.73;nan
23303;BME280;11820;48.738;9.092;2022-07-29T06:06:09;96097.41;;;21.77;nan
23303;BME280;11820;48.738;9.092;2022-07-29T06:08:34;96104.81;;;21.70;nan
23303;BME280;11820;48.738;9.092;2022-07-29T06:11:01;96111.13;;;21.84;nan
23303;BME280;11820;48.738;9.092;2022-07-29T06:13:27;96105.03;;;21.83;nan
23303;BME280;11820;48.738;9.092;2022-07-29T06:15:52;96113.16;;;22.02;nan
23303;BME280;11820;48.738;9.092;2022-07-29T06:18:17;96108.19;;;21.95;nan
23303;BME280;11820;48.738;9.092;2022-07-29T06:20:43;96114.78;;;21.93;nan
23303;BME280;11820;48.738;9.092;2022-07-29T06:23:08;96121.63;;;21.89;nan
23303;BME280;11820;48.738;9.092;2022-07-29T06:25:35;96109.47;;;21.98;nan
23303;BME280;11820;48.738;9.092;2022-07-29T06:28:01;96114.72;;;22.03;nan
23303;BME280;11820;48.738;9.092;2022-07-29T06:30:27;96110.50;;;22.07;nan
23303;BME280;11820;48.738;9.092;2022-07-29T06:32:53;96117.88;;;22.15;nan
23303;BME280;11820;48.738;9.092;2022-07-29T06:35:19;96119.38;;;22.36;nan
23303;BME280;11820;48.738;9.092;2022-07-29T06:37:45;96123.56;;;22.32;nan
23303;BME280;11820;48.738;9.092;2022-07-29T06:40:10;96121.75;;;22.37;nan
23303;BME280;11820;48.738;9.092;2022-07-29T06:42:54;96124.44;;;22.22;nan
23303;BME280;11820;48.738;9.092;2022-07-29T06:45:20;96124.63;;;22.46;nan
23303;BME280;11820;48.738;9.092;2022-07-29T06:47:45;96119.28;;;22.56;nan
23303;BME280;11820;48.738;9.092;2022-07-29T06:50:10;96127.69;;;22.68;nan
23303;BME280;11820;48.738;9.092;2022-07-29T06:52:38;96123.03;;;22.93;nan
23303;BME280;11820;48.738;9.092;2022-07-29T06:55:04;96128.00;;;23.00;nan
23303;BME280;11820;48.738;9.092;2022-07-29T06:57:29;96124.78;;;23.08;nan
23303;BME280;11820;48.738;9.092;2022-07-29T06:59:56;96133.72;;;23.17;nan
23303;BME280;11820;48.738;9.092;2022-07-29T07:02:22;96133.22;;;23.15;nan
23303;BME280;11820;48.738;9.092;2022-07-29T07:04:47;96122.56;;;23.24;nan
23303;BME280;11820;48.738;9.092;2022-07-29T07:07:12;96129.97;;;23.22;nan
23303;BME280;11820;48.738;9.092;2022-07-29T07:09:38;96136.13;;;23.46;nan
23303;BME280;11820;48.738;9.092;2022-07-29T07:12:03;96137.59;;;23.57;nan
23303;BME280;11820;48.738;9.092;2022-07-29T07:14:29;96131.25;;;23.58;nan
23303;BME280;11820;48.738;9.092;2022-07-29T07:16:54;96132.69;;;23.46;nan
23303;BME280;11820;48.738;9.092;2022-07-29T07:19:19;96140.22;;;23.62;nan
23303;BME280;11820;48.738;9.092;2022-07-29T07:21:45;96145.97;;;23.69;nan
23303;BME280;11820;48.738;9.092;2022-07-29T07:24:10;96142.38;;;23.55;nan
23303;BME280;11820;48.738;9.092;2022-07-29T07:26:35;96144.41;;;23.68;nan
23303;BME280;11820;48.738;9.092;2022-07-29T07:29:01;96142.78;;;23.72;nan
23303;BME280;11820;48.738;9.092;2022-07-29T07:31:26;96145.97;;;23.69;nan
23303;BME280;11820;48.738;9.092;2022-07-29T07:33:52;96149.13;;;23.71;nan
23303;BME280;11820;48.738;9.092;2022-07-29T07:36:18;96146.66;;;23.85;nan
23303;BME280;11820;48.738;9.092;2022-07-29T07:38:43;96148.03;;;24.06;nan
23303;BME280;11820;48.738;9.092;2022-07-29T07:41:09;96142.00;;;24.00;nan
23303;BME280;11820;48.738;9.092;2022-07-29T07:43:34;96150.34;;;24.12;nan
23303;BME280;11820;48.738;9.092;2022-07-29T07:46:00;96149.31;;;23.80;nan
23303;BME280;11820;48.738;9.092;2022-07-29T07:48:25;96148.59;;;24.03;nan
23303;BME280;11820;48.738;9.092;2022-07-29T07:50:50;96142.00;;;24.00;nan
23303;BME280;11820;48.738;9.092;2022-07-29T07:53:16;96145.66;;;24.04;nan
23303;BME280;11820;48.738;9.092;2022-07-29T07:55:42;96147.53;;;24.04;nan
23303;BME280;11820;48.738;9.092;2022-07-29T07:58:08;96148.19;;;24.14;nan
23303;BME280;11820;48.738;9.092;2022-07-29T08:00:34;96140.66;;;24.26;nan
23303;BME280;11820;48.738;9.092;2022-07-29T08:02:59;96145.75;;;24.18;nan
23303;BME280;11820;48.738;9.092;2022-07-29T08:05:25;96146.06;;;24.16;nan
23303;BME280;11820;48.738;9.092;2022-07-29T08:07:50;96148.81;;;24.30;nan
23303;BME280;11820;48.738;9.092;2022-07-29T08:10:18;96150.44;;;24.26;nan
23303;BME280;11820;48.738;9.092;2022-07-29T08:13:05;96154.03;;;24.35;nan
23303;BME280;11820;48.738;9.092;2022-07-29T08:15:31;96144.22;;;24.35;nan
23303;BME280;11820;48.738;9.092;2022-07-29T08:17:57;96142.06;;;24.42;nan
23303;BME280;11820;48.738;9.092;2022-07-29T08:20:22;96142.00;;;24.47;nan
23303;BME280;11820;48.738;9.092;2022-07-29T08:22:47;96146.09;;;24.58;nan
23303;BME280;11820;48.738;9.092;2022-07-29T08:25:13;96145.59;;;24.56;nan
23303;BME280;11820;48.738;9.092;2022-07-29T08:27:38;96147.28;;;24.71;nan
23303;BME280;11820;48.738;9.092;2022-07-29T08:30:04;96148.06;;;24.48;nan
23303;BME280;11820;48.738;9.092;2022-07-29T08:32:29;96149.75;;;24.62;nan
23303;BME280;11820;48.738;9.092;2022-07-29T08:34:56;96145.13;;;24.49;nan
23303;BME280;11820;48.738;9.092;2022-07-29T08:37:21;96151.09;;;24.36;nan
23303;BME280;11820;48.738;9.092;2022-07-29T08:39:47;96154.16;;;24.48;nan
23303;BME280;11820;48.738;9.092;2022-07-29T08:42:12;96150.31;;;24.59;nan
23303;BME280;11820;48.738;9.092;2022-07-29T08:44:38;96150.47;;;24.68;nan
23303;BME280;11820;48.738;9.092;2022-07-29T08:47:04;96154.09;;;24.77;nan
23303;BME280;11820;48.738;9.092;2022-07-29T08:49:30;96147.97;;;24.58;nan
23303;BME280;11820;48.738;9.092;2022-07-29T08:51:57;96150.88;;;24.80;nan
23303;BME280;11820;48.738;9.092;2022-07-29T08:54:23;96151.53;;;24.90;nan
23303;BME280;11820;48.738;9.092;2022-07-29T08:56:50;96154.38;;;24.93;nan
23303;BME280;11820;48.738;9.092;2022-07-29T08:59:18;96152.69;;;25.02;nan
23303;BME280;11820;48.738;9.092;2022-07-29T09:01:46;96153.00;;;25.14;nan
23303;BME280;11820;48.738;9.092;2022-07-29T09:04:13;96152.97;;;25.19;nan
23303;BME280;11820;48.738;9.092;2022-07-29T09:06:43;96151.44;;;25.13;nan
23303;BME280;11820;48.738;9.092;2022-07-29T09:09:09;96154.47;;;25.25;nan
23303;BME280;11820;48.738;9.092;2022-07-29T09:11:35;96155.09;;;25.36;nan
23303;BME280;11820;48.738;9.092;2022-07-29T09:14:00;96151.81;;;25.44;nan
23303;BME280;11820;48.738;9.092;2022-07-29T09:16:26;96149.53;;;25.37;nan
23303;BME280;11820;48.738;9.092;2022-07-29T09:19:30;96152.16;;;25.37;nan
23303;BME280;11820;48.738;9.092;2022-07-29T09:21:57;96155.81;;;25.41;nan
23303;BME280;11820;48.738;9.092;2022-07-29T09:24:45;96152.75;;;25.34;nan
23303;BME280;11820;48.738;9.092;2022-07-29T09:27:22;96148.34;;;25.75;nan
23303;BME280;11820;48.738;9.092;2022-07-29T09:32:29;96143.94;;;26.16;nan
23303;BME280;11820;48.738;9.092;2022-07-29T09:35:15;96148.44;;;26.02;nan
23303;BME280;11820;48.738;9.092;2022-07-29T09:37:42;96149.13;;;26.08;nan
23303;BME280;11820;48.738;9.092;2022-07-29T09:40:18;96143.94;;;26.30;nan
23303;BME280;11820;48.738;9.092;2022-07-29T09:42:45;96135.13;;;26.48;nan
23303;BME280;11820;48.738;9.092;2022-07-29T09:45:11;96137.25;;;26.72;nan
23303;BME280;11820;48.738;9.092;2022-07-29T09:47:47;96141.38;;;26.78;nan
23303;BME280;11820;48.738;9.092;2022-07-29T09:50:15;96132.94;;;26.76;nan
23303;BME280;11820;48.738;9.092;2022-07-29T09:52:46;96136.47;;;26.59;nan
23303;BME280;11820;48.738;9.092;2022-07-29T09:55:12;96142.06;;;26.84;nan
23303;BME280;11820;48.738;9.092;2022-07-29T09:57:37;96132.94;;;26.63;nan
23303;BME280;11820;48.738;9.092;2022-07-29T10:02:35;96122.56;;;26.88;nan
23303;BME280;11820;48.738;9.092;2022-07-29T10:05:03;96140.19;;;26.84;nan
23303;BME280;11820;48.738;9.092;2022-07-29T10:07:45;96129.91;;;26.91;nan
23303;BME280;11820;48.738;9.092;2022-07-29T10:10:21;96126.78;;;26.89;nan
23303;BME280;11820;48.738;9.092;2022-07-29T10:12:58;96126.03;;;26.75;nan
23303;BME280;11820;48.738;9.092;2022-07-29T10:15:26;96128.28;;;26.42;nan
23303;BME280;11820;48.738;9.092;2022-07-29T10:17:53;96129.59;;;26.44;nan
23303;BME280;11820;48.738;9.092;2022-07-29T10:20:20;96125.09;;;26.31;nan
23303;BME280;11820;48.738;9.092;2022-07-29T10:22:47;96123.00;;;26.15;nan
23303;BME280;11820;48.738;9.092;2022-07-29T10:25:14;96125.63;;;26.01;nan
23303;BME280;11820;48.738;9.092;2022-07-29T10:27:39;96114.59;;;25.81;nan
23303;BME280;11820;48.738;9.092;2022-07-29T10:30:05;96117.72;;;25.69;nan
23303;BME280;11820;48.738;9.092;2022-07-29T10:41:33;96123.97;;;25.09;nan
23303;BME280;11820;48.738;9.092;2022-07-29T10:44:04;96134.00;;;24.94;nan
23303;BME280;11820;48.738;9.092;2022-07-29T10:46:35;96129.91;;;24.83;nan
23303;BME280;11820;48.738;9.092;2022-07-29T10:57:25;96180.19;;;23.51;nan
23303;BME280;11820;48.738;9.092;2022-07-29T11:07:23;96181.72;;;22.65;nan
23303;BME280;11820;48.738;9.092;2022-07-29T11:15:15;96162.38;;;22.90;nan
23303;BME280;11820;48.738;9.092;2022-07-29T11:23:00;96201.81;;;23.09;nan
23303;BME280;11820;48.738;9.092;2022-07-29T11:25:26;96204.56;;;22.95;nan
23303;BME280;11820;48.738;9.092;2022-07-29T11:27:52;96197.63;;;23.14;nan
23303;BME280;11820;48.738;9.092;2022-07-29T11:30:19;96187.38;;;23.02;nan
23303;BME280;11820;48.738;9.092;2022-07-29T11:32:45;96183.34;;;23.09;nan
23303;BME280;11820;48.738;9.092;2022-07-29T11:35:22;96182.22;;;23.25;nan
23303;BME280;11820;48.738;9.092;2022-07-29T11:41:26;96182.81;;;23.08;nan
23303;BME280;11820;48.738;9.092;2022-07-29T11:43:59;96190.53;;;23.04;nan
23303;BME280;11820;48.738;9.092;2022-07-29T11:46:44;96200.69;;;23.25;nan
23303;BME280;11820;48.738;9.092;2022-07-29T11:49:11;96205.28;;;23.05;nan
23303;BME280;11820;48.738;9.092;2022-07-29T11:51:37;96192.31;;;23.08;nan
23303;BME280;11820;48.738;9.092;2022-07-29T11:54:04;96192.31;;;23.08;nan
23303;BME280;11820;48.738;9.092;2022-07-29T11:56:31;96183.09;;;23.11;nan
23303;BME280;11820;48.738;9.092;2022-07-29T11:59:07;96182.88;;;23.03;nan
23303;BME280;11820;48.738;9.092;2022-07-29T12:01:36;96181.38;;;22.87;nan
23303;BME280;11820;48.738;9.092;2022-07-29T12:04:03;96172.91;;;22.95;nan
23303;BME280;11820;48.738;9.092;2022-07-29T12:06:29;96185.34;;;22.84;nan
23303;BME280;11820;48.738;9.092;2022-07-29T12:08:55;96179.06;;;22.75;nan
23303;BME280;11820;48.738;9.092;2022-07-29T12:11:20;96175.53;;;22.95;nan
23303;BME280;11820;48.738;9.092;2022-07-29T12:13:46;96176.84;;;22.92;nan
23303;BME280;11820;48.738;9.092;2022-07-29T12:16:11;96181.56;;;23.00;nan
23303;BME280;11820;48.738;9.092;2022-07-29T12:18:36;96176.59;;;22.94;nan
23303;BME280;11820;48.738;9.092;2022-07-29T12:21:03;96180.06;;;22.84;nan
23303;BME280;11820;48.738;9.092;2022-07-29T12:23:33;96177.06;;;23.01;nan
23303;BME280;11820;48.738;9.092;2022-07-29T12:25:59;96176.19;;;22.72;nan
23303;BME280;11820;48.738;9.092;2022-07-29T12:28:25;96171.97;;;22.71;nan
23303;BME280;11820;48.738;9.092;2022-07-29T12:30:51;96175.09;;;22.78;nan
23303;BME280;11820;48.738;9.092;2022-07-29T12:33:27;96169.25;;;22.81;nan
23303;BME280;11820;48.738;9.092;2022-07-29T12:35:56;96165.53;;;22.92;nan
23303;BME280;11820;48.738;9.092;2022-07-29T12:38:22;96157.66;;;22.87;nan
23303;BME280;11820;48.738;9.092;2022-07-29T12:40:49;96158.44;;;22.82;nan
23303;BME280;11820;48.738;9.092;2022-07-29T12:43:21;96165.31;;;22.83;nan
23303;BME280;11820;48.738;9.092;2022-07-29T12:45:49;96169.84;;;22.73;nan
23303;BME280;11820;48.738;9.092;2022-07-29T12:48:16;96172.00;;;22.66;nan
23303;BME280;11820;48.738;9.092;2022-07-29T12:51:00;96180.88;;;22.80;nan
23303;BME280;11820;48.738;9.092;2022-07-29T12:53:27;96178.28;;;22.70;nan
23303;BME280;11820;48.738;9.092;2022-07-29T12:55:53;96167.75;;;22.70;nan
23303;BME280;11820;48.738;9.092;2022-07-29T13:03:46;96192.03;;;22.57;nan
23303;BME280;11820;48.738;9.092;2022-07-29T13:06:43;96202.16;;;22.40;nan
23303;BME280;11820;48.738;9.092;2022-07-29T13:09:18;96201.13;;;22.11;nan
23303;BME280;11820;48.738;9.092;2022-07-29T13:11:46;96196.38;;;22.18;nan
23303;BME280;11820;48.738;9.092;2022-07-29T13:14:14;96206.41;;;22.11;nan
23303;BME280;11820;48.738;9.092;2022-07-29T13:20:05;96220.38;;;21.56;nan
23303;BME280;11820;48.738;9.092;2022-07-29T13:22:31;96217.50;;;21.68;nan
23303;BME280;11820;48.738;9.092;2022-07-29T13:24:58;96216.44;;;21.84;nan
23303;BME280;11820;48.738;9.092;2022-07-29T13:27:27;96210.63;;;21.92;nan
23303;BME280;11820;48.738;9.092;2022-07-29T13:29:55;96209.59;;;21.83;nan
23303;BME280;11820;48.738;9.092;2022-07-29T13:32:25;96198.53;;;21.91;nan
23303;BME280;11820;48.738;9.092;2022-07-29T13:34:51;96188.00;;;21.76;nan
23303;BME280;11820;48.738;9.092;2022-07-29T13:37:17;96190.59;;;22.01;nan
23303;BME280;11820;48.738;9.092;2022-07-29T13:39:42;96182.69;;;22.11;nan
23303;BME280;11820;48.738;9.092;2022-07-29T13:42:08;96176.84;;;22.24;nan
23303;BME280;11820;48.738;9.092;2022-07-29T13:44:33;96174.53;;;22.86;nan
23303;BME280;11820;48.738;9.092;2022-07-29T13:46:59;96176.97;;;23.20;nan
23303;BME280;11820;48.738;9.092;2022-07-29T13:49:25;96174.81;;;23.27;nan
23303;BME280;11820;48.738;9.092;2022-07-29T13:51:51;96185.06;;;23.34;nan
23303;BME280;11820;48.738;9.092;2022-07-29T13:54:16;96170.75;;;23.40;nan
23303;BME280;11820;48.738;9.092;2022-07-29T13:56:41;96167.66;;;23.66;nan
23303;BME280;11820;48.738;9.092;2022-07-29T13:59:07;96161.56;;;23.99;nan
23303;BME280;11820;48.738;9.092;2022-07-29T14:01:34;96161.06;;;23.97;nan
23303;BME280;11820;48.738;9.092;2022-07-29T14:04:00;96169.44;;;24.04;nan
23303;BME280;11820;48.738;9.092;2022-07-29T14:06:25;96162.81;;;24.07;nan
23303;BME280;11820;48.738;9.092;2022-07-29T14:08:51;96163.28;;;23.85;nan
23303;BME280;11820;48.738;9.092;2022-07-29T14:11:16;96166.56;;;24.01;nan
23303;BME280;11820;48.738;9.092;2022-07-29T14:13:41;96162.50;;;24.13;nan
23303;BME280;11820;48.738;9.092;2022-07-29T14:16:07;96160.22;;;24.25;nan
23303;BME280;11820;48.738;9.092;2022-07-29T14:18:33;96154.94;;;24.25;nan
23303;BME280;11820;48.738;9.092;2022-07-29T14:20:58;96164.19;;;24.28;nan
23303;BME280;11820;48.738;9.092;2022-07-29T14:23:24;96161.63;;;24.41;nan